createdAt,value
2023-01-19T00:01:43.053Z,99936.02
2023-01-19T00:04:11.773Z,99942.06
2023-01-19T00:06:40.846Z,99955.42
2023-01-19T00:09:09.553Z,99946.49
2023-01-19T00:11:38.755Z,99941.05
2023-01-19T00:14:07.446Z,99942.87
2023-01-19T00:16:36.208Z,99943.27
2023-01-19T00:19:04.891Z,99946.06
2023-01-19T00:21:33.744Z,99950.17
2023-01-19T00:24:02.374Z,99955.30
2023-01-19T00:26:31.095Z,99952.09
2023-01-19T00:28:59.700Z,99949.64
2023-01-19T00:31:30.195Z,99949.50
2023-01-19T00:33:58.859Z,99947.67
2023-01-19T00:36:27.913Z,99948.89
2023-01-19T00:38:56.520Z,99949.89
2023-01-19T00:41:43.864Z,99952.64
2023-01-19T00:44:12.655Z,99950.18
2023-01-19T00:46:41.307Z,99944.55
2023-01-19T00:49:09.990Z,99944.42
2023-01-19T00:51:38.654Z,99945.73
2023-01-19T00:54:09.201Z,99937.27
2023-01-19T00:56:38.012Z,99936.94
2023-01-19T00:59:06.679Z,99936.23
2023-01-19T01:01:45.556Z,99936.38
2023-01-19T01:04:15.617Z,99930.30
2023-01-19T01:06:44.354Z,99926.06
2023-01-19T01:09:12.962Z,99916.94
2023-01-19T01:11:43.456Z,99920.16
2023-01-19T01:14:13.478Z,99922.95
2023-01-19T01:16:42.401Z,99928.59
2023-01-19T01:19:11.022Z,99930.29
2023-01-19T01:21:39.793Z,99927.25
2023-01-19T01:24:10.568Z,99919.77
2023-01-19T01:26:39.435Z,99911.03
2023-01-19T01:29:08.837Z,99910.84
2023-01-19T01:31:37.513Z,99910.43
2023-01-19T01:34:06.185Z,99912.89
2023-01-19T01:36:35.690Z,99913.36
2023-01-19T01:39:05.166Z,99906.33
2023-01-19T01:41:34.201Z,99903.81
2023-01-19T01:44:24.638Z,99903.47
2023-01-19T01:46:53.599Z,99910.25
2023-01-19T01:49:22.280Z,99904.18
2023-01-19T01:51:54.673Z,99897.14
2023-01-19T01:54:33.824Z,99894.72
2023-01-19T01:57:12.527Z,99896.39
2023-01-19T01:59:47.971Z,99894.02
2023-01-19T02:02:40.535Z,99891.27
2023-01-19T02:05:33.655Z,99887.42
2023-01-19T02:08:29.185Z,99885.99
2023-01-19T02:11:17.712Z,99881.95
2023-01-19T02:13:47.899Z,99878.84
2023-01-19T02:16:17.827Z,99870.12
2023-01-19T02:18:46.702Z,99866.02
2023-01-19T02:21:44.794Z,99870.00
2023-01-19T02:24:13.814Z,99862.61
2023-01-19T02:26:48.100Z,99863.64
2023-01-19T02:29:25.220Z,99865.56
2023-01-19T02:31:55.882Z,99869.71
2023-01-19T02:34:24.656Z,99869.75
2023-01-19T02:37:06.881Z,99875.05
2023-01-19T02:39:50.943Z,99877.33
2023-01-19T02:42:29.858Z,99884.48
2023-01-19T02:45:00.139Z,99886.10
2023-01-19T02:47:39.126Z,99873.09
2023-01-19T02:50:43.756Z,99868.09
2023-01-19T02:53:30.660Z,99854.52
2023-01-19T02:56:29.547Z,99848.07
2023-01-19T02:59:22.886Z,99842.39
2023-01-19T03:02:36.593Z,99846.79
2023-01-19T03:05:46.051Z,99844.42
2023-01-19T03:08:25.392Z,99843.64
2023-01-19T03:11:11.791Z,99846.07
2023-01-19T03:14:09.062Z,99849.83
2023-01-19T03:16:45.928Z,99840.83
2023-01-19T03:19:36.686Z,99842.80
2023-01-19T03:22:13.770Z,99834.78
2023-01-19T03:24:46.279Z,99830.58
2023-01-19T03:27:42.655Z,99821.14
2023-01-19T03:30:21.643Z,99813.77
2023-01-19T03:33:05.078Z,99838.51
2023-01-19T03:35:39.178Z,99832.52
2023-01-19T03:38:15.673Z,99824.17
2023-01-19T03:40:45.790Z,99826.30
2023-01-19T03:43:16.976Z,99813.56
2023-01-19T03:45:46.950Z,99822.23
2023-01-19T03:48:15.701Z,99838.45
2023-01-19T03:50:44.417Z,99842.85
2023-01-19T03:53:17.061Z,99841.56
2023-01-19T03:55:48.036Z,99843.05
2023-01-19T03:58:16.723Z,99841.83
2023-01-19T04:00:45.589Z,99837.38
2023-01-19T04:03:18.154Z,99840.10
2023-01-19T04:05:46.968Z,99837.84
2023-01-19T04:08:16.991Z,99838.17
2023-01-19T04:10:45.752Z,99838.31
2023-01-19T04:13:14.501Z,99833.80
2023-01-19T04:15:43.229Z,99830.44
2023-01-19T04:18:12.430Z,99827.43
2023-01-19T04:20:41.704Z,99819.17
2023-01-19T04:23:10.636Z,99822.48
2023-01-19T04:25:39.192Z,99832.27
2023-01-19T04:28:07.873Z,99830.20
2023-01-19T04:34:01.532Z,99816.65
2023-01-19T04:36:30.426Z,99817.73
2023-01-19T04:38:59.318Z,99815.48
2023-01-19T04:41:29.659Z,99819.58
2023-01-19T04:43:59.083Z,99821.98
2023-01-19T04:46:27.784Z,99823.96
2023-01-19T04:49:05.320Z,99813.41
2023-01-19T04:51:35.008Z,99808.81
2023-01-19T04:54:04.244Z,99813.08
2023-01-19T04:56:32.996Z,99814.12
2023-01-19T04:59:02.177Z,99820.58
2023-01-19T05:01:31.081Z,99826.39
2023-01-19T05:04:00.780Z,99837.19
2023-01-19T05:06:29.542Z,99836.30
2023-01-19T05:08:58.650Z,99837.34
2023-01-19T05:11:27.560Z,99835.57
2023-01-19T05:13:56.277Z,99836.73
2023-01-19T05:16:25.310Z,99834.56
2023-01-19T05:18:54.762Z,99835.69
2023-01-19T05:21:23.893Z,99831.73
2023-01-19T05:23:53.211Z,99828.04
2023-01-19T05:26:22.115Z,99820.85
2023-01-19T05:28:50.854Z,99813.86
2023-01-19T05:31:19.816Z,99814.85
2023-01-19T05:33:49.266Z,99813.17
2023-01-19T05:36:18.314Z,99811.75
2023-01-19T05:38:47.321Z,99813.30
2023-01-19T05:41:16.123Z,99813.58
2023-01-19T05:43:46.432Z,99808.95
2023-01-19T05:46:15.672Z,99805.84
2023-01-19T05:48:45.335Z,99812.56
2023-01-19T05:51:14.074Z,99820.09
2023-01-19T05:53:43.652Z,99818.88
2023-01-19T05:56:12.253Z,99824.76
2023-01-19T05:58:41.052Z,99830.41
2023-01-19T06:01:10.876Z,99831.41
2023-01-19T06:03:39.993Z,99828.10
2023-01-19T06:06:08.613Z,99828.45
2023-01-19T06:08:37.208Z,99827.34
2023-01-19T06:11:07.593Z,99826.63
2023-01-19T06:13:36.295Z,99831.95
2023-01-19T06:16:05.231Z,99828.81
2023-01-19T06:18:34.390Z,99827.21
2023-01-19T06:21:06.274Z,99830.89
2023-01-19T06:23:35.773Z,99832.89
2023-01-19T06:26:05.055Z,99823.09
2023-01-19T06:28:33.793Z,99824.61
2023-01-19T06:31:02.611Z,99822.98
2023-01-19T06:33:31.697Z,99816.50
2023-01-19T06:36:00.570Z,99807.76
2023-01-19T06:38:29.344Z,99809.73
2023-01-19T06:40:58.832Z,99824.16
2023-01-19T06:43:27.659Z,99834.54
2023-01-19T06:45:56.760Z,99841.07
2023-01-19T06:48:26.133Z,99838.75
2023-01-19T06:50:59.517Z,99848.69
2023-01-19T06:53:30.651Z,99851.84
2023-01-19T06:56:02.072Z,99845.89
2023-01-19T06:58:31.942Z,99842.32
2023-01-19T07:01:06.300Z,99844.25
2023-01-19T07:03:38.826Z,99842.91
2023-01-19T07:06:07.554Z,99836.96
2023-01-19T07:08:37.489Z,99837.22
2023-01-19T07:11:26.319Z,99841.79
2023-01-19T07:13:58.053Z,99837.86
2023-01-19T07:16:26.960Z,99832.34
2023-01-19T07:18:56.009Z,99840.89
2023-01-19T07:21:24.826Z,99839.35
2023-01-19T07:23:53.570Z,99838.57
2023-01-19T07:26:25.143Z,99842.36
2023-01-19T07:28:54.100Z,99840.68
2023-01-19T07:31:24.149Z,99841.23
2023-01-19T07:33:53.082Z,99846.58
2023-01-19T07:36:21.790Z,99840.73
2023-01-19T07:38:50.457Z,99839.09
2023-01-19T07:41:19.353Z,99837.80
2023-01-19T07:43:47.943Z,99835.73
2023-01-19T07:46:16.595Z,99835.08
2023-01-19T07:48:45.306Z,99836.67
2023-01-19T07:51:18.207Z,99840.45
2023-01-19T07:53:47.223Z,99839.21
2023-01-19T07:56:15.855Z,99834.08
2023-01-19T07:58:44.460Z,99839.80
2023-01-19T08:01:14.527Z,99845.41
2023-01-19T08:03:43.591Z,99851.86
2023-01-19T08:06:26.468Z,99859.33
2023-01-19T08:08:55.373Z,99862.89
2023-01-19T08:11:49.543Z,99865.35
2023-01-19T08:14:18.538Z,99869.55
2023-01-19T08:16:47.109Z,99867.55
2023-01-19T08:19:15.801Z,99858.06
2023-01-19T08:21:46.365Z,99849.83
2023-01-19T08:24:21.711Z,99850.67
2023-01-19T08:26:50.397Z,99852.48
2023-01-19T08:29:19.161Z,99848.44
2023-01-19T08:31:47.978Z,99837.40
2023-01-19T08:34:16.727Z,99834.13
2023-01-19T08:36:45.277Z,99834.38
2023-01-19T08:39:14.743Z,99821.66
2023-01-19T08:41:43.735Z,99815.67
2023-01-19T08:44:12.447Z,99821.80
2023-01-19T08:46:41.287Z,99822.02
2023-01-19T08:49:10.380Z,99812.45
2023-01-19T08:51:39.210Z,99809.69
2023-01-19T08:54:08.115Z,99810.27
2023-01-19T08:56:37.087Z,99803.04
2023-01-19T08:59:11.304Z,99799.98
2023-01-19T09:01:41.638Z,99798.58
2023-01-19T09:04:10.686Z,99802.55
2023-01-19T09:06:39.444Z,99803.95
2023-01-19T09:09:08.026Z,99810.30
2023-01-19T09:11:36.988Z,99807.63
2023-01-19T09:14:06.270Z,99805.67
2023-01-19T09:16:34.917Z,99807.88
2023-01-19T09:19:03.600Z,99812.25
2023-01-19T09:21:32.210Z,99809.70
2023-01-19T09:24:00.945Z,99808.11
2023-01-19T09:26:31.654Z,99807.06
2023-01-19T09:29:01.759Z,99797.79
2023-01-19T09:31:30.605Z,99793.39
2023-01-19T09:33:59.418Z,99792.06
2023-01-19T09:36:28.058Z,99786.83
2023-01-19T09:38:56.726Z,99794.61
2023-01-19T09:41:26.558Z,99790.23
2023-01-19T09:44:00.572Z,99794.77
2023-01-19T09:46:41.636Z,99801.70
2023-01-19T09:49:28.679Z,99798.89
2023-01-19T09:51:58.283Z,99778.89
2023-01-19T09:54:41.141Z,99789.64
2023-01-19T09:57:14.905Z,99770.24
2023-01-19T10:03:21.293Z,99769.20
2023-01-19T10:05:58.971Z,99769.09
2023-01-19T10:08:52.820Z,99771.48
2023-01-19T10:11:52.641Z,99771.85
2023-01-19T10:14:42.099Z,99774.08
2023-01-19T10:17:27.606Z,99764.81
2023-01-19T10:19:58.960Z,99765.72
2023-01-19T10:22:29.289Z,99767.35
2023-01-19T10:25:06.178Z,99766.02
2023-01-19T10:27:37.735Z,99764.61
2023-01-19T10:30:10.451Z,99766.83
2023-01-19T10:32:41.318Z,99779.42
2023-01-19T10:35:26.128Z,99781.23
2023-01-19T10:38:01.793Z,99774.27
2023-01-19T10:41:05.294Z,99773.83
2023-01-19T10:43:44.375Z,99766.43
2023-01-19T10:46:22.557Z,99770.32
2023-01-19T10:48:54.339Z,99767.36
2023-01-19T10:51:23.550Z,99773.00
2023-01-19T10:54:02.589Z,99768.82
2023-01-19T10:56:36.387Z,99763.69
2023-01-19T10:59:07.852Z,99760.90
2023-01-19T11:01:37.593Z,99753.95
2023-01-19T11:04:29.876Z,99750.41
2023-01-19T11:07:34.184Z,99738.17
2023-01-19T11:10:19.949Z,99743.83
2023-01-19T11:13:24.354Z,99744.55
2023-01-19T11:16:16.663Z,99744.41
2023-01-19T11:18:47.343Z,99741.93
2023-01-19T11:21:17.772Z,99740.02
2023-01-19T11:23:56.170Z,99742.45
2023-01-19T11:27:03.163Z,99732.73
2023-01-19T11:29:32.177Z,99732.71
2023-01-19T11:32:19.726Z,99732.80
2023-01-19T11:34:49.500Z,99730.19
2023-01-19T11:37:21.498Z,99734.79
2023-01-19T11:39:55.230Z,99740.20
2023-01-19T11:42:26.095Z,99735.05
2023-01-19T11:45:07.131Z,99727.70
2023-01-19T11:47:52.905Z,99741.32
2023-01-19T11:50:39.276Z,99738.80
2023-01-19T11:53:20.066Z,99728.54
2023-01-19T11:56:15.392Z,99735.50
2023-01-19T11:58:48.117Z,99746.19
2023-01-19T12:01:25.464Z,99747.30
2023-01-19T12:04:27.841Z,99740.54
2023-01-19T12:07:00.011Z,99730.93
2023-01-19T12:09:42.945Z,99732.98
2023-01-19T12:17:07.365Z,99732.44
2023-01-19T12:19:54.982Z,99735.95
2023-01-19T12:22:24.713Z,99732.50
2023-01-19T12:25:54.924Z,99730.27
2023-01-19T12:28:33.085Z,99732.73
2023-01-19T12:31:02.964Z,99744.55
2023-01-19T12:33:39.492Z,99743.59
2023-01-19T12:36:17.312Z,99740.06
2023-01-19T12:38:54.119Z,99735.25
2023-01-19T12:41:37.301Z,99737.03
2023-01-19T12:44:11.969Z,99731.77
2023-01-19T12:46:52.542Z,99726.09
2023-01-19T12:49:39.186Z,99721.63
2023-01-19T12:52:35.410Z,99720.02
2023-01-19T12:55:20.935Z,99721.93
2023-01-19T12:58:10.900Z,99727.19
2023-01-19T13:00:42.949Z,99731.30
2023-01-19T13:03:17.688Z,99734.60
2023-01-19T13:05:54.403Z,99736.86
2023-01-19T13:08:30.745Z,99729.37
2023-01-19T13:11:02.556Z,99728.78
2023-01-19T13:13:36.940Z,99731.27
2023-01-19T13:16:25.120Z,99738.16
2023-01-19T13:19:16.709Z,99737.61
2023-01-19T13:21:49.845Z,99736.80
2023-01-19T13:24:22.774Z,99740.88
2023-01-19T13:26:54.312Z,99741.23
2023-01-19T13:29:43.609Z,99745.15
2023-01-19T13:32:21.287Z,99752.60
2023-01-19T13:34:59.629Z,99762.19
2023-01-19T13:37:42.209Z,99760.95
2023-01-19T13:40:41.712Z,99764.28
2023-01-19T13:43:32.568Z,99761.27
2023-01-19T13:46:01.714Z,99761.40
2023-01-19T13:48:32.572Z,99761.44
2023-01-19T13:51:06.132Z,99760.21
2023-01-19T13:53:35.598Z,99758.27
2023-01-19T13:56:16.276Z,99754.19
2023-01-19T13:58:58.166Z,99755.11
2023-01-19T14:01:29.378Z,99755.46
2023-01-19T14:04:00.076Z,99758.08
2023-01-19T14:06:40.852Z,99762.66
2023-01-19T14:09:20.502Z,99768.96
2023-01-19T14:12:17.746Z,99770.61
2023-01-19T14:14:48.428Z,99769.81
2023-01-19T14:17:29.674Z,99774.73
2023-01-19T14:20:05.071Z,99774.30
2023-01-19T14:22:45.516Z,99777.72
2023-01-19T14:25:34.880Z,99783.48
2023-01-19T14:28:35.773Z,99782.41
2023-01-19T14:31:26.593Z,99779.56
2023-01-19T14:33:58.596Z,99775.36
2023-01-19T14:36:36.326Z,99780.99
2023-01-19T14:39:06.265Z,99772.98
2023-01-19T14:41:52.437Z,99771.52
2023-01-19T14:44:36.657Z,99781.27
2023-01-19T14:47:07.708Z,99789.80
2023-01-19T14:49:38.411Z,99795.67
2023-01-19T14:52:22.098Z,99808.16
2023-01-19T14:54:51.556Z,99819.52
2023-01-19T14:57:20.348Z,99818.20
2023-01-19T14:59:50.514Z,99818.11
2023-01-19T15:02:19.517Z,99817.23
2023-01-19T15:04:49.300Z,99813.58
2023-01-19T15:07:24.286Z,99813.10
2023-01-19T15:09:53.085Z,99816.73
2023-01-19T15:12:25.448Z,99811.35
2023-01-19T15:14:54.090Z,99811.34
2023-01-19T15:17:25.792Z,99811.45
2023-01-19T15:19:56.640Z,99813.55
2023-01-19T15:22:28.648Z,99809.24
2023-01-19T15:25:00.199Z,99812.05
2023-01-19T15:27:29.517Z,99817.52
2023-01-19T15:29:59.925Z,99813.80
2023-01-19T15:32:28.683Z,99818.67
2023-01-19T15:34:57.371Z,99822.44
2023-01-19T15:37:26.011Z,99824.98
2023-01-19T15:39:54.631Z,99831.21
2023-01-19T15:42:23.161Z,99825.23
2023-01-19T15:44:53.340Z,99831.15
2023-01-19T15:47:22.205Z,99827.91
2023-01-19T15:49:51.348Z,99824.70
2023-01-19T15:52:20.162Z,99827.28
2023-01-19T15:54:48.843Z,99826.23
2023-01-19T15:57:17.623Z,99824.98
2023-01-19T15:59:46.243Z,99822.94
2023-01-19T16:02:15.074Z,99825.84
2023-01-19T16:04:48.363Z,99826.71
2023-01-19T16:07:17.052Z,99826.52
2023-01-19T16:09:45.884Z,99827.34
2023-01-19T16:12:14.467Z,99830.19
2023-01-19T16:14:43.180Z,99826.84
2023-01-19T16:17:12.344Z,99833.91
2023-01-19T16:19:41.178Z,99826.38
2023-01-19T16:22:12.277Z,99829.81
2023-01-19T16:24:41.055Z,99824.03
2023-01-19T16:27:09.794Z,99829.42
2023-01-19T16:29:38.604Z,99830.36
2023-01-19T16:32:07.406Z,99833.44
2023-01-19T16:34:36.169Z,99829.09
2023-01-19T16:37:04.920Z,99835.02
2023-01-19T16:39:33.953Z,99825.96
2023-01-19T16:42:02.763Z,99835.30
2023-01-19T16:44:31.443Z,99846.69
2023-01-19T16:47:00.230Z,99845.15
2023-01-19T16:49:29.125Z,99847.66
2023-01-19T16:51:58.790Z,99847.24
2023-01-19T16:54:29.459Z,99848.78
2023-01-19T16:56:59.053Z,99847.48
2023-01-19T16:59:29.396Z,99845.86
2023-01-19T17:01:58.339Z,99842.46
2023-01-19T17:04:27.542Z,99838.20
2023-01-19T17:06:56.243Z,99837.21
2023-01-19T17:09:24.959Z,99841.94
2023-01-19T17:11:53.756Z,99846.59
2023-01-19T17:14:22.321Z,99847.52
2023-01-19T17:16:51.186Z,99850.26
2023-01-19T17:19:22.263Z,99855.14
2023-01-19T17:21:51.149Z,99853.27
2023-01-19T17:24:19.946Z,99851.36
2023-01-19T17:26:49.084Z,99855.16
2023-01-19T17:29:18.437Z,99859.94
2023-01-19T17:31:49.858Z,99860.02
2023-01-19T17:34:18.791Z,99866.36
2023-01-19T17:36:47.452Z,99869.96
2023-01-19T17:39:17.060Z,99869.70
2023-01-19T17:41:45.867Z,99866.02
2023-01-19T17:44:14.388Z,99869.16
2023-01-19T17:46:42.909Z,99868.27
2023-01-19T17:49:11.818Z,99874.79
2023-01-19T17:51:40.729Z,99878.27
2023-01-19T17:54:11.012Z,99882.65
2023-01-19T17:56:41.503Z,99886.36
2023-01-19T17:59:10.295Z,99884.02
2023-01-19T18:01:40.539Z,99880.11
2023-01-19T18:04:09.729Z,99890.81
2023-01-19T18:06:38.553Z,99889.94
2023-01-19T18:09:08.061Z,99891.19
2023-01-19T18:11:36.730Z,99889.65
2023-01-19T18:14:07.265Z,99889.55
2023-01-19T18:16:36.119Z,99890.52
2023-01-19T18:19:04.759Z,99886.80
2023-01-19T18:21:33.356Z,99885.11
2023-01-19T18:24:05.203Z,99892.71
2023-01-19T18:26:36.555Z,99897.65
2023-01-19T18:29:05.554Z,99899.45
2023-01-19T18:31:34.464Z,99895.09
2023-01-19T18:34:03.787Z,99899.89
2023-01-19T18:36:32.822Z,99903.25
2023-01-19T18:39:01.943Z,99900.05
2023-01-19T18:41:30.891Z,99905.50
2023-01-19T18:44:00.030Z,99907.17
2023-01-19T18:46:28.857Z,99907.63
2023-01-19T18:48:57.606Z,99908.59
2023-01-19T18:51:26.527Z,99912.02
2023-01-19T18:53:57.628Z,99920.13
2023-01-19T18:56:27.025Z,99923.52
2023-01-19T18:58:55.838Z,99923.18
2023-01-19T19:01:33.185Z,99932.17
2023-01-19T19:04:03.350Z,99939.22
2023-01-19T19:06:31.887Z,99936.44
2023-01-19T19:09:00.357Z,99930.50
2023-01-19T19:11:29.037Z,99930.95
2023-01-19T19:14:01.526Z,99932.10
2023-01-19T19:16:31.675Z,99944.98
2023-01-19T19:19:02.126Z,99956.65
2023-01-19T19:21:30.859Z,99961.14
2023-01-19T19:23:59.512Z,99968.95
2023-01-19T19:26:29.074Z,99969.80
2023-01-19T19:28:57.888Z,99979.81
2023-01-19T19:31:32.450Z,99977.41
2023-01-19T19:34:01.492Z,99976.95
2023-01-19T19:36:30.258Z,99978.42
2023-01-19T19:39:00.185Z,99985.35
2023-01-19T19:41:32.449Z,99990.51
2023-01-19T19:44:01.464Z,99996.49
2023-01-19T19:46:32.592Z,99993.86
2023-01-19T19:49:02.114Z,99993.45
2023-01-19T19:51:31.729Z,99996.80
2023-01-19T19:54:02.345Z,100006.00
2023-01-19T19:56:34.510Z,100012.73
2023-01-19T19:59:03.758Z,100009.96
2023-01-19T20:01:33.991Z,100007.41
2023-01-19T20:04:12.386Z,100005.96
2023-01-19T20:06:51.105Z,100013.89
2023-01-19T20:09:24.786Z,100014.52
2023-01-19T20:11:53.748Z,100011.44
2023-01-19T20:14:24.173Z,100011.70
2023-01-19T20:16:54.572Z,100014.53
2023-01-19T20:19:23.292Z,100024.63
2023-01-19T20:21:52.376Z,100036.14
2023-01-19T20:24:21.290Z,100055.85
2023-01-19T20:26:53.327Z,100070.96
2023-01-19T20:29:22.496Z,100073.48
2023-01-19T20:31:58.355Z,100092.98
2023-01-19T20:34:33.731Z,100096.96
2023-01-19T20:37:04.977Z,100092.58
2023-01-19T20:39:35.619Z,100101.34
2023-01-19T20:42:05.821Z,100100.76
2023-01-19T20:44:34.550Z,100104.31
2023-01-19T20:47:06.537Z,100106.27
2023-01-19T20:49:37.801Z,100109.59
2023-01-19T20:52:06.591Z,100116.73
2023-01-19T20:54:35.289Z,100116.69
2023-01-19T20:57:04.014Z,100127.91
2023-01-19T20:59:34.339Z,100124.91
2023-01-19T21:02:03.434Z,100126.55
2023-01-19T21:04:32.171Z,100123.69
2023-01-19T21:07:00.731Z,100133.20
2023-01-19T21:09:29.406Z,100129.92
2023-01-19T21:11:58.340Z,100128.15
2023-01-19T21:14:27.418Z,100133.92
2023-01-19T21:16:58.581Z,100140.00
2023-01-19T21:19:27.461Z,100142.57
2023-01-19T21:21:56.063Z,100146.16
2023-01-19T21:24:24.845Z,100145.88
2023-01-19T21:26:53.513Z,100144.52
2023-01-19T21:29:22.965Z,100140.19
2023-01-19T21:31:57.887Z,100138.71
2023-01-19T21:34:26.633Z,100133.75
2023-01-19T21:36:55.223Z,100131.90
2023-01-19T21:39:24.199Z,100130.45
2023-01-19T21:41:52.933Z,100132.71
2023-01-19T21:44:22.608Z,100140.30
2023-01-19T21:46:55.699Z,100144.64
2023-01-19T21:49:24.297Z,100145.27
2023-01-19T21:53:42.143Z,100147.15
2023-01-19T21:56:16.912Z,100151.27
2023-01-19T21:58:49.691Z,100142.66
2023-01-19T22:01:18.505Z,100142.65
2023-01-19T22:03:47.244Z,100137.30
2023-01-19T22:06:15.867Z,100141.70
2023-01-19T22:08:46.721Z,100148.27
2023-01-19T22:11:18.617Z,100150.15
2023-01-19T22:13:47.860Z,100149.37
2023-01-19T22:16:19.466Z,100148.23
2023-01-19T22:18:59.627Z,100146.52
2023-01-19T22:21:35.890Z,100149.15
2023-01-19T22:24:05.326Z,100148.11
2023-01-19T22:26:35.212Z,100152.67
2023-01-19T22:29:06.570Z,100154.05
2023-01-19T22:31:35.390Z,100158.59
2023-01-19T22:34:04.809Z,100159.77
2023-01-19T22:36:34.185Z,100164.77
2023-01-19T22:39:10.098Z,100172.19
2023-01-19T22:41:43.587Z,100168.52
2023-01-19T22:44:17.100Z,100165.73
2023-01-19T22:46:45.734Z,100167.41
2023-01-19T22:49:17.971Z,100164.96
2023-01-19T22:51:47.124Z,100158.06
2023-01-19T22:54:15.891Z,100153.63
2023-01-19T22:56:45.936Z,100156.66
2023-01-19T22:59:14.806Z,100156.92
2023-01-19T23:01:44.611Z,100165.04
2023-01-19T23:04:16.067Z,100169.20
2023-01-19T23:06:50.380Z,100161.74
2023-01-19T23:09:19.676Z,100155.92
2023-01-19T23:11:50.820Z,100158.23
2023-01-19T23:14:22.614Z,100156.94
2023-01-19T23:16:51.466Z,100152.98
2023-01-19T23:19:20.001Z,100148.75
2023-01-19T23:21:52.880Z,100144.27
2023-01-19T23:24:21.653Z,100147.36
2023-01-19T23:26:51.117Z,100144.02
2023-01-19T23:29:19.977Z,100141.65
2023-01-19T23:31:50.358Z,100146.09
2023-01-19T23:34:18.864Z,100145.12
2023-01-19T23:36:47.436Z,100142.85
2023-01-19T23:39:23.009Z,100141.35
2023-01-19T23:41:51.590Z,100143.04
2023-01-19T23:44:20.491Z,100143.36
2023-01-19T23:46:49.103Z,100146.02
2023-01-19T23:49:18.314Z,100150.00
2023-01-19T23:51:46.907Z,100153.33
2023-01-19T23:54:15.457Z,100157.02
2023-01-19T23:56:44.083Z,100159.48
2023-01-19T23:59:16.654Z,100152.27
